sensor_id;sensor_type;location;lat;lon;timestamp;P1;durP1;ratioP1;P2;durP2;ratioP2
7703;SDS011;3894;49.700;10.770;2022-08-25T00:01:33;13.82;;;9.35;;
7703;SDS011;3894;49.700;10.770;2022-08-25T00:04:02;13.10;;;9.15;;
7703;SDS011;3894;49.700;10.770;2022-08-25T00:06:29;14.77;;;9.38;;
7703;SDS011;3894;49.700;10.770;2022-08-25T00:08:55;13.57;;;8.80;;
7703;SDS011;3894;49.700;10.770;2022-08-25T00:11:23;12.45;;;9.07;;
7703;SDS011;3894;49.700;10.770;2022-08-25T00:13:51;13.00;;;9.43;;
7703;SDS011;3894;49.700;10.770;2022-08-25T00:16:19;12.80;;;9.13;;
7703;SDS011;3894;49.700;10.770;2022-08-25T00:18:47;12.15;;;9.32;;
7703;SDS011;3894;49.700;10.770;2022-08-25T00:21:14;13.30;;;9.77;;
7703;SDS011;3894;49.700;10.770;2022-08-25T00:23:40;12.90;;;10.13;;
7703;SDS011;3894;49.700;10.770;2022-08-25T00:26:07;12.20;;;8.95;;
7703;SDS011;3894;49.700;10.770;2022-08-25T00:28:34;11.60;;;8.48;;
7703;SDS011;3894;49.700;10.770;2022-08-25T00:31:01;11.55;;;9.07;;
7703;SDS011;3894;49.700;10.770;2022-08-25T00:33:28;11.40;;;8.50;;
7703;SDS011;3894;49.700;10.770;2022-08-25T00:35:57;11.48;;;8.50;;
7703;SDS011;3894;49.700;10.770;2022-08-25T00:38:24;12.30;;;9.07;;
7703;SDS011;3894;49.700;10.770;2022-08-25T00:40:50;13.10;;;9.25;;
7703;SDS011;3894;49.700;10.770;2022-08-25T00:46:26;13.80;;;9.77;;
7703;SDS011;3894;49.700;10.770;2022-08-25T00:49:02;14.70;;;9.23;;
7703;SDS011;3894;49.700;10.770;2022-08-25T00:51:42;14.48;;;10.05;;
7703;SDS011;3894;49.700;10.770;2022-08-25T00:54:15;17.48;;;10.73;;
7703;SDS011;3894;49.700;10.770;2022-08-25T00:56:44;14.87;;;9.97;;
7703;SDS011;3894;49.700;10.770;2022-08-25T00:59:10;13.98;;;9.90;;
7703;SDS011;3894;49.700;10.770;2022-08-25T01:01:37;13.45;;;10.05;;
7703;SDS011;3894;49.700;10.770;2022-08-25T01:04:03;15.23;;;10.60;;
7703;SDS011;3894;49.700;10.770;2022-08-25T01:06:28;14.05;;;9.68;;
7703;SDS011;3894;49.700;10.770;2022-08-25T01:08:58;13.68;;;9.75;;
7703;SDS011;3894;49.700;10.770;2022-08-25T01:11:24;14.57;;;10.20;;
7703;SDS011;3894;49.700;10.770;2022-08-25T01:13:52;16.10;;;11.13;;
7703;SDS011;3894;49.700;10.770;2022-08-25T01:16:19;14.75;;;10.68;;
7703;SDS011;3894;49.700;10.770;2022-08-25T01:18:50;14.05;;;9.38;;
7703;SDS011;3894;49.700;10.770;2022-08-25T01:21:25;14.93;;;10.68;;
7703;SDS011;3894;49.700;10.770;2022-08-25T01:23:52;15.07;;;9.60;;
7703;SDS011;3894;49.700;10.770;2022-08-25T01:26:25;17.10;;;10.57;;
7703;SDS011;3894;49.700;10.770;2022-08-25T01:28:56;14.30;;;9.73;;
7703;SDS011;3894;49.700;10.770;2022-08-25T01:31:42;14.27;;;9.65;;
7703;SDS011;3894;49.700;10.770;2022-08-25T01:34:09;17.45;;;11.48;;
7703;SDS011;3894;49.700;10.770;2022-08-25T01:36:39;14.50;;;10.18;;
7703;SDS011;3894;49.700;10.770;2022-08-25T01:39:06;16.58;;;10.30;;
7703;SDS011;3894;49.700;10.770;2022-08-25T01:44:15;12.75;;;8.63;;
7703;SDS011;3894;49.700;10.770;2022-08-25T01:46:40;13.15;;;9.27;;
7703;SDS011;3894;49.700;10.770;2022-08-25T01:49:06;14.00;;;9.35;;
7703;SDS011;3894;49.700;10.770;2022-08-25T01:51:33;13.90;;;9.88;;
7703;SDS011;3894;49.700;10.770;2022-08-25T01:54:03;16.65;;;9.75;;
7703;SDS011;3894;49.700;10.770;2022-08-25T01:56:29;11.73;;;8.73;;
7703;SDS011;3894;49.700;10.770;2022-08-25T01:58:55;13.85;;;10.13;;
7703;SDS011;3894;49.700;10.770;2022-08-25T02:01:22;13.48;;;9.88;;
7703;SDS011;3894;49.700;10.770;2022-08-25T02:03:49;15.98;;;10.55;;
7703;SDS011;3894;49.700;10.770;2022-08-25T02:06:19;15.93;;;9.63;;
7703;SDS011;3894;49.700;10.770;2022-08-25T02:08:51;14.70;;;10.07;;
7703;SDS011;3894;49.700;10.770;2022-08-25T02:11:20;14.70;;;9.95;;
7703;SDS011;3894;49.700;10.770;2022-08-25T02:13:48;12.23;;;9.43;;
7703;SDS011;3894;49.700;10.770;2022-08-25T02:16:16;13.38;;;9.73;;
7703;SDS011;3894;49.700;10.770;2022-08-25T02:18:47;13.23;;;9.52;;
7703;SDS011;3894;49.700;10.770;2022-08-25T02:21:13;13.88;;;9.10;;
7703;SDS011;3894;49.700;10.770;2022-08-25T02:23:39;13.73;;;9.15;;
7703;SDS011;3894;49.700;10.770;2022-08-25T02:26:06;14.15;;;10.13;;
7703;SDS011;3894;49.700;10.770;2022-08-25T02:28:33;15.18;;;10.25;;
7703;SDS011;3894;49.700;10.770;2022-08-25T02:30:58;13.20;;;9.35;;
7703;SDS011;3894;49.700;10.770;2022-08-25T02:33:25;14.90;;;9.80;;
7703;SDS011;3894;49.700;10.770;2022-08-25T02:35:51;16.05;;;9.65;;
7703;SDS011;3894;49.700;10.770;2022-08-25T02:38:16;13.45;;;9.75;;
7703;SDS011;3894;49.700;10.770;2022-08-25T02:40:42;14.75;;;10.25;;
7703;SDS011;3894;49.700;10.770;2022-08-25T02:43:08;14.68;;;9.68;;
7703;SDS011;3894;49.700;10.770;2022-08-25T02:45:34;13.23;;;9.30;;
7703;SDS011;3894;49.700;10.770;2022-08-25T02:48:00;14.70;;;9.48;;
7703;SDS011;3894;49.700;10.770;2022-08-25T02:50:27;15.50;;;9.65;;
7703;SDS011;3894;49.700;10.770;2022-08-25T02:52:53;12.68;;;8.70;;
7703;SDS011;3894;49.700;10.770;2022-08-25T02:55:19;15.85;;;10.13;;
7703;SDS011;3894;49.700;10.770;2022-08-25T02:57:45;13.90;;;9.68;;
7703;SDS011;3894;49.700;10.770;2022-08-25T03:00:12;13.13;;;9.35;;
7703;SDS011;3894;49.700;10.770;2022-08-25T03:02:39;15.02;;;10.10;;
7703;SDS011;3894;49.700;10.770;2022-08-25T03:05:05;13.55;;;9.65;;
7703;SDS011;3894;49.700;10.770;2022-08-25T03:07:32;14.38;;;9.70;;
7703;SDS011;3894;49.700;10.770;2022-08-25T03:10:09;12.85;;;9.93;;
7703;SDS011;3894;49.700;10.770;2022-08-25T03:12:39;15.10;;;10.02;;
7703;SDS011;3894;49.700;10.770;2022-08-25T03:15:05;13.57;;;9.93;;
7703;SDS011;3894;49.700;10.770;2022-08-25T03:17:33;13.13;;;9.80;;
7703;SDS011;3894;49.700;10.770;2022-08-25T03:19:59;15.90;;;9.75;;
7703;SDS011;3894;49.700;10.770;2022-08-25T03:22:24;13.93;;;9.90;;
7703;SDS011;3894;49.700;10.770;2022-08-25T03:24:50;14.13;;;9.75;;
7703;SDS011;3894;49.700;10.770;2022-08-25T03:27:16;14.85;;;9.57;;
7703;SDS011;3894;49.700;10.770;2022-08-25T03:29:42;13.48;;;9.88;;
7703;SDS011;3894;49.700;10.770;2022-08-25T03:32:07;13.98;;;9.77;;
7703;SDS011;3894;49.700;10.770;2022-08-25T03:34:33;13.35;;;9.40;;
7703;SDS011;3894;49.700;10.770;2022-08-25T03:36:59;14.23;;;9.15;;
7703;SDS011;3894;49.700;10.770;2022-08-25T03:39:25;13.77;;;9.85;;
7703;SDS011;3894;49.700;10.770;2022-08-25T03:41:52;14.63;;;9.98;;
7703;SDS011;3894;49.700;10.770;2022-08-25T03:44:26;14.13;;;8.95;;
7703;SDS011;3894;49.700;10.770;2022-08-25T03:46:52;14.23;;;10.10;;
7703;SDS011;3894;49.700;10.770;2022-08-25T03:49:19;13.68;;;9.45;;
7703;SDS011;3894;49.700;10.770;2022-08-25T03:51:48;15.20;;;10.18;;
7703;SDS011;3894;49.700;10.770;2022-08-25T03:54:16;12.52;;;9.32;;
7703;SDS011;3894;49.700;10.770;2022-08-25T03:56:44;15.43;;;10.18;;
7703;SDS011;3894;49.700;10.770;2022-08-25T03:59:11;12.40;;;8.93;;
7703;SDS011;3894;49.700;10.770;2022-08-25T04:01:37;14.15;;;9.63;;
7703;SDS011;3894;49.700;10.770;2022-08-25T04:04:04;14.48;;;10.02;;
7703;SDS011;3894;49.700;10.770;2022-08-25T04:06:32;16.52;;;10.48;;
7703;SDS011;3894;49.700;10.770;2022-08-25T04:08:57;13.65;;;9.63;;
7703;SDS011;3894;49.700;10.770;2022-08-25T04:11:24;13.73;;;9.80;;
7703;SDS011;3894;49.700;10.770;2022-08-25T04:13:51;15.70;;;11.40;;
7703;SDS011;3894;49.700;10.770;2022-08-25T04:16:18;18.23;;;11.93;;
7703;SDS011;3894;49.700;10.770;2022-08-25T04:18:47;17.35;;;11.85;;
7703;SDS011;3894;49.700;10.770;2022-08-25T04:21:13;19.02;;;12.93;;
7703;SDS011;3894;49.700;10.770;2022-08-25T04:23:40;18.48;;;12.23;;
7703;SDS011;3894;49.700;10.770;2022-08-25T04:26:08;19.38;;;11.77;;
7703;SDS011;3894;49.700;10.770;2022-08-25T04:28:34;17.48;;;11.90;;
7703;SDS011;3894;49.700;10.770;2022-08-25T04:30:59;17.65;;;11.07;;
7703;SDS011;3894;49.700;10.770;2022-08-25T04:33:25;18.85;;;11.82;;
7703;SDS011;3894;49.700;10.770;2022-08-25T04:35:50;17.45;;;11.23;;
7703;SDS011;3894;49.700;10.770;2022-08-25T04:38:16;17.13;;;11.57;;
7703;SDS011;3894;49.700;10.770;2022-08-25T04:40:42;18.70;;;11.70;;
7703;SDS011;3894;49.700;10.770;2022-08-25T04:43:08;16.83;;;11.20;;
7703;SDS011;3894;49.700;10.770;2022-08-25T04:45:40;17.83;;;11.55;;
7703;SDS011;3894;49.700;10.770;2022-08-25T04:48:05;18.02;;;10.90;;
7703;SDS011;3894;49.700;10.770;2022-08-25T04:50:31;15.32;;;10.93;;
7703;SDS011;3894;49.700;10.770;2022-08-25T04:52:56;16.83;;;11.02;;
7703;SDS011;3894;49.700;10.770;2022-08-25T04:55:22;15.98;;;11.35;;
7703;SDS011;3894;49.700;10.770;2022-08-25T04:57:48;16.48;;;11.50;;
7703;SDS011;3894;49.700;10.770;2022-08-25T05:00:14;16.98;;;11.10;;
7703;SDS011;3894;49.700;10.770;2022-08-25T05:02:40;14.93;;;11.23;;
7703;SDS011;3894;49.700;10.770;2022-08-25T05:05:05;19.33;;;11.85;;
7703;SDS011;3894;49.700;10.770;2022-08-25T05:07:31;15.95;;;11.10;;
7703;SDS011;3894;49.700;10.770;2022-08-25T05:09:57;16.70;;;11.32;;
7703;SDS011;3894;49.700;10.770;2022-08-25T05:12:22;15.05;;;11.20;;
7703;SDS011;3894;49.700;10.770;2022-08-25T05:14:50;17.80;;;11.90;;
7703;SDS011;3894;49.700;10.770;2022-08-25T05:17:16;16.40;;;10.57;;
7703;SDS011;3894;49.700;10.770;2022-08-25T05:19:43;16.50;;;11.23;;
7703;SDS011;3894;49.700;10.770;2022-08-25T05:22:08;18.02;;;11.50;;
7703;SDS011;3894;49.700;10.770;2022-08-25T05:24:34;17.45;;;11.90;;
7703;SDS011;3894;49.700;10.770;2022-08-25T05:26:59;18.23;;;11.98;;
7703;SDS011;3894;49.700;10.770;2022-08-25T05:29:25;16.52;;;11.82;;
7703;SDS011;3894;49.700;10.770;2022-08-25T05:31:51;18.45;;;12.55;;
7703;SDS011;3894;49.700;10.770;2022-08-25T05:34:18;17.00;;;11.63;;
7703;SDS011;3894;49.700;10.770;2022-08-25T05:36:43;16.73;;;11.48;;
7703;SDS011;3894;49.700;10.770;2022-08-25T05:39:09;14.93;;;10.70;;
7703;SDS011;3894;49.700;10.770;2022-08-25T05:41:36;22.40;;;12.07;;
7703;SDS011;3894;49.700;10.770;2022-08-25T05:44:02;19.20;;;12.18;;
7703;SDS011;3894;49.700;10.770;2022-08-25T05:46:28;17.90;;;12.25;;
7703;SDS011;3894;49.700;10.770;2022-08-25T05:48:54;17.42;;;12.27;;
7703;SDS011;3894;49.700;10.770;2022-08-25T05:51:19;18.88;;;12.77;;
7703;SDS011;3894;49.700;10.770;2022-08-25T05:53:46;20.25;;;12.88;;
7703;SDS011;3894;49.700;10.770;2022-08-25T05:56:14;16.95;;;12.30;;
7703;SDS011;3894;49.700;10.770;2022-08-25T05:58:41;16.08;;;12.07;;
7703;SDS011;3894;49.700;10.770;2022-08-25T06:01:07;20.00;;;12.50;;
7703;SDS011;3894;49.700;10.770;2022-08-25T06:03:52;21.17;;;12.98;;
7703;SDS011;3894;49.700;10.770;2022-08-25T06:06:19;18.02;;;12.68;;
7703;SDS011;3894;49.700;10.770;2022-08-25T06:08:46;18.60;;;12.63;;
7703;SDS011;3894;49.700;10.770;2022-08-25T06:11:12;18.13;;;13.20;;
7703;SDS011;3894;49.700;10.770;2022-08-25T06:13:38;19.23;;;13.13;;
7703;SDS011;3894;49.700;10.770;2022-08-25T06:16:04;22.00;;;12.70;;
7703;SDS011;3894;49.700;10.770;2022-08-25T06:18:30;17.88;;;12.77;;
7703;SDS011;3894;49.700;10.770;2022-08-25T06:20:56;19.05;;;13.13;;
7703;SDS011;3894;49.700;10.770;2022-08-25T06:23:21;19.55;;;12.80;;
7703;SDS011;3894;49.700;10.770;2022-08-25T06:25:50;20.80;;;12.52;;
7703;SDS011;3894;49.700;10.770;2022-08-25T06:28:17;19.20;;;13.23;;
7703;SDS011;3894;49.700;10.770;2022-08-25T06:30:44;18.83;;;14.52;;
7703;SDS011;3894;49.700;10.770;2022-08-25T06:33:10;18.08;;;13.60;;
7703;SDS011;3894;49.700;10.770;2022-08-25T06:35:36;20.88;;;13.75;;
7703;SDS011;3894;49.700;10.770;2022-08-25T06:38:06;18.30;;;12.48;;
7703;SDS011;3894;49.700;10.770;2022-08-25T06:40:31;19.30;;;13.02;;
7703;SDS011;3894;49.700;10.770;2022-08-25T06:42:57;15.38;;;11.20;;
7703;SDS011;3894;49.700;10.770;2022-08-25T06:45:23;20.25;;;13.20;;
7703;SDS011;3894;49.700;10.770;2022-08-25T06:47:48;16.73;;;12.45;;
7703;SDS011;3894;49.700;10.770;2022-08-25T06:50:14;18.20;;;12.68;;
7703;SDS011;3894;49.700;10.770;2022-08-25T06:52:39;17.08;;;11.82;;
7703;SDS011;3894;49.700;10.770;2022-08-25T06:55:05;20.13;;;12.57;;
7703;SDS011;3894;49.700;10.770;2022-08-25T06:57:30;16.90;;;12.10;;
7703;SDS011;3894;49.700;10.770;2022-08-25T06:59:59;17.33;;;11.88;;
7703;SDS011;3894;49.700;10.770;2022-08-25T07:02:25;18.75;;;13.65;;
7703;SDS011;3894;49.700;10.770;2022-08-25T07:04:51;18.25;;;12.55;;
7703;SDS011;3894;49.700;10.770;2022-08-25T07:07:17;21.95;;;13.43;;
7703;SDS011;3894;49.700;10.770;2022-08-25T07:09:43;17.55;;;11.88;;
7703;SDS011;3894;49.700;10.770;2022-08-25T07:12:08;17.63;;;12.57;;
7703;SDS011;3894;49.700;10.770;2022-08-25T07:14:34;17.13;;;12.48;;
7703;SDS011;3894;49.700;10.770;2022-08-25T07:17:00;17.48;;;11.77;;
7703;SDS011;3894;49.700;10.770;2022-08-25T07:19:26;21.00;;;13.10;;
7703;SDS011;3894;49.700;10.770;2022-08-25T07:21:52;18.23;;;11.85;;
7703;SDS011;3894;49.700;10.770;2022-08-25T07:24:18;18.60;;;13.70;;
7703;SDS011;3894;49.700;10.770;2022-08-25T07:26:44;17.05;;;11.80;;
7703;SDS011;3894;49.700;10.770;2022-08-25T07:31:38;17.70;;;12.25;;
7703;SDS011;3894;49.700;10.770;2022-08-25T07:34:05;18.05;;;12.50;;
7703;SDS011;3894;49.700;10.770;2022-08-25T07:36:49;16.77;;;12.15;;
7703;SDS011;3894;49.700;10.770;2022-08-25T07:39:15;16.40;;;12.10;;
7703;SDS011;3894;49.700;10.770;2022-08-25T07:41:41;15.10;;;12.20;;
7703;SDS011;3894;49.700;10.770;2022-08-25T07:44:08;14.45;;;11.40;;
7703;SDS011;3894;49.700;10.770;2022-08-25T07:46:35;16.92;;;12.75;;
7703;SDS011;3894;49.700;10.770;2022-08-25T07:49:01;16.65;;;12.00;;
7703;SDS011;3894;49.700;10.770;2022-08-25T07:51:27;15.55;;;12.07;;
7703;SDS011;3894;49.700;10.770;2022-08-25T07:53:52;16.80;;;12.40;;
7703;SDS011;3894;49.700;10.770;2022-08-25T07:56:18;14.65;;;10.90;;
7703;SDS011;3894;49.700;10.770;2022-08-25T07:58:44;17.65;;;11.93;;
7703;SDS011;3894;49.700;10.770;2022-08-25T08:01:15;15.00;;;11.45;;
7703;SDS011;3894;49.700;10.770;2022-08-25T08:03:42;15.95;;;11.77;;
7703;SDS011;3894;49.700;10.770;2022-08-25T08:06:13;15.82;;;11.20;;
7703;SDS011;3894;49.700;10.770;2022-08-25T08:08:40;17.67;;;11.25;;
7703;SDS011;3894;49.700;10.770;2022-08-25T08:11:16;14.95;;;11.05;;
7703;SDS011;3894;49.700;10.770;2022-08-25T08:13:43;16.35;;;11.35;;
7703;SDS011;3894;49.700;10.770;2022-08-25T08:16:11;15.25;;;11.07;;
7703;SDS011;3894;49.700;10.770;2022-08-25T08:18:38;15.48;;;10.82;;
7703;SDS011;3894;49.700;10.770;2022-08-25T08:21:03;14.50;;;11.07;;
7703;SDS011;3894;49.700;10.770;2022-08-25T08:23:29;15.85;;;11.57;;
7703;SDS011;3894;49.700;10.770;2022-08-25T08:25:55;15.77;;;11.15;;
7703;SDS011;3894;49.700;10.770;2022-08-25T08:28:21;15.23;;;11.07;;
7703;SDS011;3894;49.700;10.770;2022-08-25T08:30:47;14.25;;;10.25;;
7703;SDS011;3894;49.700;10.770;2022-08-25T08:33:12;15.93;;;10.60;;
7703;SDS011;3894;49.700;10.770;2022-08-25T08:35:38;14.20;;;10.77;;
7703;SDS011;3894;49.700;10.770;2022-08-25T08:38:05;14.32;;;10.70;;
7703;SDS011;3894;49.700;10.770;2022-08-25T08:40:30;15.82;;;10.93;;
7703;SDS011;3894;49.700;10.770;2022-08-25T08:43:07;12.70;;;9.27;;
7703;SDS011;3894;49.700;10.770;2022-08-25T08:45:40;14.55;;;9.95;;
7703;SDS011;3894;49.700;10.770;2022-08-25T08:51:00;12.88;;;9.80;;
7703;SDS011;3894;49.700;10.770;2022-08-25T08:56:10;13.93;;;9.38;;
7703;SDS011;3894;49.700;10.770;2022-08-25T08:59:02;13.32;;;9.52;;
7703;SDS011;3894;49.700;10.770;2022-08-25T09:01:32;13.20;;;9.05;;
7703;SDS011;3894;49.700;10.770;2022-08-25T09:06:55;13.85;;;9.32;;
7703;SDS011;3894;49.700;10.770;2022-08-25T09:09:25;13.55;;;9.43;;
7703;SDS011;3894;49.700;10.770;2022-08-25T09:17:19;12.95;;;8.65;;
7703;SDS011;3894;49.700;10.770;2022-08-25T09:19:57;13.18;;;8.77;;
7703;SDS011;3894;49.700;10.770;2022-08-25T09:28:31;11.95;;;8.80;;
7703;SDS011;3894;49.700;10.770;2022-08-25T09:31:26;11.20;;;8.43;;
7703;SDS011;3894;49.700;10.770;2022-08-25T09:33:55;9.90;;;7.68;;
7703;SDS011;3894;49.700;10.770;2022-08-25T09:36:22;9.85;;;7.70;;
7703;SDS011;3894;49.700;10.770;2022-08-25T09:38:48;10.20;;;6.90;;
7703;SDS011;3894;49.700;10.770;2022-08-25T09:41:17;9.27;;;6.68;;
7703;SDS011;3894;49.700;10.770;2022-08-25T09:44:03;9.50;;;7.43;;
7703;SDS011;3894;49.700;10.770;2022-08-25T09:46:29;10.80;;;7.55;;
7703;SDS011;3894;49.700;10.770;2022-08-25T09:48:56;11.82;;;7.45;;
7703;SDS011;3894;49.700;10.770;2022-08-25T09:51:35;10.02;;;7.50;;
7703;SDS011;3894;49.700;10.770;2022-08-25T09:54:05;11.02;;;7.38;;
7703;SDS011;3894;49.700;10.770;2022-08-25T09:56:48;11.23;;;7.00;;
7703;SDS011;3894;49.700;10.770;2022-08-25T09:59:20;8.35;;;6.32;;
7703;SDS011;3894;49.700;10.770;2022-08-25T10:01:51;9.55;;;7.05;;
7703;SDS011;3894;49.700;10.770;2022-08-25T10:06:59;12.18;;;7.18;;
7703;SDS011;3894;49.700;10.770;2022-08-25T10:09:32;9.30;;;6.72;;
7703;SDS011;3894;49.700;10.770;2022-08-25T10:12:13;8.50;;;6.68;;
7703;SDS011;3894;49.700;10.770;2022-08-25T10:14:49;10.43;;;6.90;;
7703;SDS011;3894;49.700;10.770;2022-08-25T10:22:39;9.57;;;7.15;;
7703;SDS011;3894;49.700;10.770;2022-08-25T10:25:10;8.93;;;7.07;;
7703;SDS011;3894;49.700;10.770;2022-08-25T10:33:10;11.15;;;7.07;;
7703;SDS011;3894;49.700;10.770;2022-08-25T10:38:41;10.27;;;6.50;;
7703;SDS011;3894;49.700;10.770;2022-08-25T10:44:36;9.25;;;6.70;;
7703;SDS011;3894;49.700;10.770;2022-08-25T10:59:16;8.57;;;6.43;;
7703;SDS011;3894;49.700;10.770;2022-08-25T11:10:19;9.88;;;6.22;;
7703;SDS011;3894;49.700;10.770;2022-08-25T11:12:52;9.02;;;6.28;;
7703;SDS011;3894;49.700;10.770;2022-08-25T11:20:26;9.13;;;6.57;;
7703;SDS011;3894;49.700;10.770;2022-08-25T11:25:42;9.77;;;6.70;;
7703;SDS011;3894;49.700;10.770;2022-08-25T11:31:23;7.85;;;6.20;;
7703;SDS011;3894;49.700;10.770;2022-08-25T11:33:49;8.68;;;6.22;;
7703;SDS011;3894;49.700;10.770;2022-08-25T11:36:32;8.40;;;6.00;;
7703;SDS011;3894;49.700;10.770;2022-08-25T11:39:07;8.57;;;6.22;;
7703;SDS011;3894;49.700;10.770;2022-08-25T11:50:23;9.63;;;6.70;;
7703;SDS011;3894;49.700;10.770;2022-08-25T11:53:15;8.02;;;6.13;;
7703;SDS011;3894;49.700;10.770;2022-08-25T11:55:48;8.47;;;6.40;;
7703;SDS011;3894;49.700;10.770;2022-08-25T12:04:11;10.45;;;6.47;;
7703;SDS011;3894;49.700;10.770;2022-08-25T12:09:31;8.25;;;6.45;;
7703;SDS011;3894;49.700;10.770;2022-08-25T12:11:57;10.00;;;7.00;;
7703;SDS011;3894;49.700;10.770;2022-08-25T12:14:42;8.35;;;6.40;;
7703;SDS011;3894;49.700;10.770;2022-08-25T12:17:20;9.40;;;6.18;;
7703;SDS011;3894;49.700;10.770;2022-08-25T12:24:53;9.85;;;6.60;;
7703;SDS011;3894;49.700;10.770;2022-08-25T12:38:29;9.40;;;6.78;;
7703;SDS011;3894;49.700;10.770;2022-08-25T12:43:36;9.43;;;7.10;;
7703;SDS011;3894;49.700;10.770;2022-08-25T12:46:52;9.88;;;6.85;;
7703;SDS011;3894;49.700;10.770;2022-08-25T13:00:09;11.13;;;6.68;;
7703;SDS011;3894;49.700;10.770;2022-08-25T13:11:23;10.73;;;7.03;;
7703;SDS011;3894;49.700;10.770;2022-08-25T13:16:29;9.43;;;7.20;;
7703;SDS011;3894;49.700;10.770;2022-08-25T13:18:57;8.30;;;6.43;;
7703;SDS011;3894;49.700;10.770;2022-08-25T13:21:46;10.15;;;6.95;;
7703;SDS011;3894;49.700;10.770;2022-08-25T13:24:17;8.98;;;6.80;;
7703;SDS011;3894;49.700;10.770;2022-08-25T13:26:50;9.20;;;7.00;;
7703;SDS011;3894;49.700;10.770;2022-08-25T13:29:23;8.88;;;6.80;;
7703;SDS011;3894;49.700;10.770;2022-08-25T13:31:55;7.70;;;6.38;;
7703;SDS011;3894;49.700;10.770;2022-08-25T13:34:33;8.07;;;5.90;;
7703;SDS011;3894;49.700;10.770;2022-08-25T13:37:04;8.00;;;5.93;;
7703;SDS011;3894;49.700;10.770;2022-08-25T13:42:54;9.95;;;6.45;;
7703;SDS011;3894;49.700;10.770;2022-08-25T13:45:24;9.20;;;6.03;;
7703;SDS011;3894;49.700;10.770;2022-08-25T13:47:52;8.60;;;5.70;;
7703;SDS011;3894;49.700;10.770;2022-08-25T13:52:52;7.57;;;5.57;;
7703;SDS011;3894;49.700;10.770;2022-08-25T13:55:34;8.75;;;6.40;;
7703;SDS011;3894;49.700;10.770;2022-08-25T13:58:13;8.48;;;6.10;;
7703;SDS011;3894;49.700;10.770;2022-08-25T14:13:38;8.63;;;5.90;;
7703;SDS011;3894;49.700;10.770;2022-08-25T14:16:07;8.90;;;5.90;;
7703;SDS011;3894;49.700;10.770;2022-08-25T14:18:55;9.18;;;6.05;;
7703;SDS011;3894;49.700;10.770;2022-08-25T14:21:27;8.03;;;5.97;;
7703;SDS011;3894;49.700;10.770;2022-08-25T14:23:54;8.30;;;6.05;;
7703;SDS011;3894;49.700;10.770;2022-08-25T14:26:21;8.77;;;5.75;;
7703;SDS011;3894;49.700;10.770;2022-08-25T14:28:50;9.90;;;5.72;;
7703;SDS011;3894;49.700;10.770;2022-08-25T14:31:19;8.73;;;6.10;;
7703;SDS011;3894;49.700;10.770;2022-08-25T14:34:04;10.82;;;6.10;;
7703;SDS011;3894;49.700;10.770;2022-08-25T14:36:40;8.00;;;5.80;;
7703;SDS011;3894;49.700;10.770;2022-08-25T14:39:06;10.60;;;5.75;;
7703;SDS011;3894;49.700;10.770;2022-08-25T14:41:34;7.88;;;5.80;;
7703;SDS011;3894;49.700;10.770;2022-08-25T14:44:01;8.88;;;5.65;;
7703;SDS011;3894;49.700;10.770;2022-08-25T14:46:32;7.63;;;5.85;;
7703;SDS011;3894;49.700;10.770;2022-08-25T14:49:00;7.93;;;5.60;;
7703;SDS011;3894;49.700;10.770;2022-08-25T14:51:29;7.07;;;5.45;;
7703;SDS011;3894;49.700;10.770;2022-08-25T14:53:58;7.20;;;5.50;;
7703;SDS011;3894;49.700;10.770;2022-08-25T14:56:26;6.65;;;5.50;;
7703;SDS011;3894;49.700;10.770;2022-08-25T14:58:52;8.18;;;5.50;;
7703;SDS011;3894;49.700;10.770;2022-08-25T15:01:18;8.70;;;5.38;;
7703;SDS011;3894;49.700;10.770;2022-08-25T15:03:47;7.82;;;5.78;;
7703;SDS011;3894;49.700;10.770;2022-08-25T15:06:15;8.10;;;5.57;;
7703;SDS011;3894;49.700;10.770;2022-08-25T15:08:42;7.57;;;5.47;;
7703;SDS011;3894;49.700;10.770;2022-08-25T15:11:27;8.63;;;5.88;;
7703;SDS011;3894;49.700;10.770;2022-08-25T15:13:53;8.00;;;5.90;;
7703;SDS011;3894;49.700;10.770;2022-08-25T15:16:21;7.13;;;5.50;;
7703;SDS011;3894;49.700;10.770;2022-08-25T15:18:49;9.45;;;6.05;;
7703;SDS011;3894;49.700;10.770;2022-08-25T15:21:15;6.88;;;5.90;;
7703;SDS011;3894;49.700;10.770;2022-08-25T15:23:43;7.78;;;5.40;;
7703;SDS011;3894;49.700;10.770;2022-08-25T15:26:10;8.88;;;6.10;;
7703;SDS011;3894;49.700;10.770;2022-08-25T15:28:38;10.85;;;5.93;;
7703;SDS011;3894;49.700;10.770;2022-08-25T15:31:08;7.70;;;5.32;;
7703;SDS011;3894;49.700;10.770;2022-08-25T15:33:39;8.82;;;6.28;;
7703;SDS011;3894;49.700;10.770;2022-08-25T15:36:12;9.18;;;5.78;;
7703;SDS011;3894;49.700;10.770;2022-08-25T15:38:41;9.07;;;5.82;;
7703;SDS011;3894;49.700;10.770;2022-08-25T15:41:08;9.15;;;5.90;;
7703;SDS011;3894;49.700;10.770;2022-08-25T15:43:35;12.57;;;6.25;;
7703;SDS011;3894;49.700;10.770;2022-08-25T15:46:16;7.97;;;5.25;;
7703;SDS011;3894;49.700;10.770;2022-08-25T15:48:45;8.38;;;5.68;;
7703;SDS011;3894;49.700;10.770;2022-08-25T15:51:11;8.50;;;5.88;;
7703;SDS011;3894;49.700;10.770;2022-08-25T15:53:37;9.27;;;5.70;;
7703;SDS011;3894;49.700;10.770;2022-08-25T15:56:04;8.38;;;5.63;;
7703;SDS011;3894;49.700;10.770;2022-08-25T15:58:30;8.68;;;5.53;;
7703;SDS011;3894;49.700;10.770;2022-08-25T16:00:56;7.68;;;5.72;;
7703;SDS011;3894;49.700;10.770;2022-08-25T16:03:22;9.05;;;5.70;;
7703;SDS011;3894;49.700;10.770;2022-08-25T16:05:47;7.03;;;5.57;;
7703;SDS011;3894;49.700;10.770;2022-08-25T16:08:13;7.53;;;5.50;;
7703;SDS011;3894;49.700;10.770;2022-08-25T16:10:40;7.35;;;5.53;;
7703;SDS011;3894;49.700;10.770;2022-08-25T16:13:07;7.70;;;5.40;;
7703;SDS011;3894;49.700;10.770;2022-08-25T16:15:33;9.18;;;5.80;;
7703;SDS011;3894;49.700;10.770;2022-08-25T16:18:00;8.43;;;5.40;;
7703;SDS011;3894;49.700;10.770;2022-08-25T16:20:27;8.57;;;5.93;;
7703;SDS011;3894;49.700;10.770;2022-08-25T16:22:53;9.13;;;5.10;;
7703;SDS011;3894;49.700;10.770;2022-08-25T16:25:19;10.38;;;5.57;;
7703;SDS011;3894;49.700;10.770;2022-08-25T16:27:45;7.25;;;5.00;;
7703;SDS011;3894;49.700;10.770;2022-08-25T16:30:11;7.90;;;5.53;;
7703;SDS011;3894;49.700;10.770;2022-08-25T16:32:38;9.93;;;5.50;;
7703;SDS011;3894;49.700;10.770;2022-08-25T16:35:04;7.45;;;5.47;;
7703;SDS011;3894;49.700;10.770;2022-08-25T16:37:31;7.88;;;5.93;;
7703;SDS011;3894;49.700;10.770;2022-08-25T16:39:59;9.05;;;6.05;;
7703;SDS011;3894;49.700;10.770;2022-08-25T16:42:26;7.72;;;5.25;;
7703;SDS011;3894;49.700;10.770;2022-08-25T16:44:52;9.55;;;5.65;;
7703;SDS011;3894;49.700;10.770;2022-08-25T16:47:18;7.38;;;5.75;;
7703;SDS011;3894;49.700;10.770;2022-08-25T16:49:44;9.50;;;6.00;;
7703;SDS011;3894;49.700;10.770;2022-08-25T16:52:11;10.00;;;5.70;;
7703;SDS011;3894;49.700;10.770;2022-08-25T16:54:55;8.65;;;5.70;;
7703;SDS011;3894;49.700;10.770;2022-08-25T16:57:36;8.05;;;5.88;;
7703;SDS011;3894;49.700;10.770;2022-08-25T17:00:04;10.40;;;6.20;;
7703;SDS011;3894;49.700;10.770;2022-08-25T17:02:32;7.22;;;5.70;;
7703;SDS011;3894;49.700;10.770;2022-08-25T17:04:57;9.70;;;5.97;;
7703;SDS011;3894;49.700;10.770;2022-08-25T17:07:23;9.27;;;5.78;;
7703;SDS011;3894;49.700;10.770;2022-08-25T17:09:48;7.88;;;6.00;;
7703;SDS011;3894;49.700;10.770;2022-08-25T17:12:14;10.85;;;5.72;;
7703;SDS011;3894;49.700;10.770;2022-08-25T17:14:39;9.32;;;5.95;;
7703;SDS011;3894;49.700;10.770;2022-08-25T17:17:05;7.95;;;5.70;;
7703;SDS011;3894;49.700;10.770;2022-08-25T17:19:31;9.13;;;6.60;;
7703;SDS011;3894;49.700;10.770;2022-08-25T17:21:57;7.80;;;5.60;;
7703;SDS011;3894;49.700;10.770;2022-08-25T17:24:22;8.80;;;5.95;;
7703;SDS011;3894;49.700;10.770;2022-08-25T17:26:48;9.75;;;5.50;;
7703;SDS011;3894;49.700;10.770;2022-08-25T17:29:14;7.40;;;5.65;;
7703;SDS011;3894;49.700;10.770;2022-08-25T17:31:41;9.10;;;5.70;;
7703;SDS011;3894;49.700;10.770;2022-08-25T17:34:09;7.95;;;5.63;;